Aviation Digital Data Service (ADDS)

Output produced by METARs form (2014 UTC 20 August 2019)
found at http://www.aviationweather.gov/metar/data/
 
METAR text: UAAA 202000Z 15003MPS 140V280 9999 SCT100 17/09 Q1016 R23L/CLRD65 NOSIG
Conditions at: UAAA (ALMA-ATA , KZ) observed 2000 UTC 20 August 2019
Temperature: 17.0°C (63°F)
Dewpoint: 9.0°C (48°F) [RH = 59%]
Pressure (altimeter): 30.00 inches Hg (1016.0 mb)
Winds: from the SSE (150 degrees) at 7 MPH (6 knots; 3.1 m/s)
Visibility: 6 or more miles (10+ km)
Ceiling: at least 12,000 feet AGL
Clouds: scattered clouds at 10000 feet AGL
Weather: no significant weather observed at this time

METAR text: UAAA 201930Z 15003MPS 9999 SCT100 18/08 Q1016 R23L/CLRD65 NOSIG
Conditions at: UAAA (ALMA-ATA , KZ) observed 1930 UTC 20 August 2019
Temperature: 18.0°C (64°F)
Dewpoint: 8.0°C (46°F) [RH = 52%]
Pressure (altimeter): 30.00 inches Hg (1016.0 mb)
Winds: from the SSE (150 degrees) at 7 MPH (6 knots; 3.1 m/s)
Visibility: 6 or more miles (10+ km)
Ceiling: at least 12,000 feet AGL
Clouds: scattered clouds at 10000 feet AGL
Weather: no significant weather observed at this time

METAR text: UAAA 201900Z 15003MPS 9999 SCT100 18/09 Q1017 R23L/CLRD65 NOSIG
Conditions at: UAAA (ALMA-ATA , KZ) observed 1900 UTC 20 August 2019
Temperature: 18.0°C (64°F)
Dewpoint: 9.0°C (48°F) [RH = 56%]
Pressure (altimeter): 30.03 inches Hg (1017.0 mb)
Winds: from the SSE (150 degrees) at 7 MPH (6 knots; 3.1 m/s)
Visibility: 6 or more miles (10+ km)
Ceiling: at least 12,000 feet AGL
Clouds: scattered clouds at 10000 feet AGL
Weather: no significant weather observed at this time

METAR text: UAAA 201830Z 14002MPS 9999 SCT100 18/09 Q1017 R23L/CLRD65 NOSIG
Conditions at: UAAA (ALMA-ATA , KZ) observed 1830 UTC 20 August 2019
Temperature: 18.0°C (64°F)
Dewpoint: 9.0°C (48°F) [RH = 56%]
Pressure (altimeter): 30.03 inches Hg (1017.0 mb)
Winds: from the SE (140 degrees) at 5 MPH (4 knots; 2.1 m/s)
Visibility: 6 or more miles (10+ km)
Ceiling: at least 12,000 feet AGL
Clouds: scattered clouds at 10000 feet AGL
Weather: no significant weather observed at this time

METAR text: UAAA 201800Z 14002MPS 9999 SCT100 17/09 Q1017 R23L/CLRD65 NOSIG
Conditions at: UAAA (ALMA-ATA , KZ) observed 1800 UTC 20 August 2019
Temperature: 17.0°C (63°F)
Dewpoint: 9.0°C (48°F) [RH = 59%]
Pressure (altimeter): 30.03 inches Hg (1017.0 mb)
Winds: from the SE (140 degrees) at 5 MPH (4 knots; 2.1 m/s)
Visibility: 6 or more miles (10+ km)
Ceiling: at least 12,000 feet AGL
Clouds: scattered clouds at 10000 feet AGL
Weather: no significant weather observed at this time

METAR text: UAAA 201730Z 15002MPS 9999 SCT100 17/10 Q1017 R23L/CLRD65 NOSIG
Conditions at: UAAA (ALMA-ATA , KZ) observed 1730 UTC 20 August 2019
Temperature: 17.0°C (63°F)
Dewpoint: 10.0°C (50°F) [RH = 63%]
Pressure (altimeter): 30.03 inches Hg (1017.0 mb)
Winds: from the SSE (150 degrees) at 5 MPH (4 knots; 2.1 m/s)
Visibility: 6 or more miles (10+ km)
Ceiling: at least 12,000 feet AGL
Clouds: scattered clouds at 10000 feet AGL
Weather: no significant weather observed at this time

METAR text: UAAA 201700Z 14003MPS 9999 SCT100 18/09 Q1017 R23L/CLRD65 NOSIG
Conditions at: UAAA (ALMA-ATA , KZ) observed 1700 UTC 20 August 2019
Temperature: 18.0°C (64°F)
Dewpoint: 9.0°C (48°F) [RH = 56%]
Pressure (altimeter): 30.03 inches Hg (1017.0 mb)
Winds: from the SE (140 degrees) at 7 MPH (6 knots; 3.1 m/s)
Visibility: 6 or more miles (10+ km)
Ceiling: at least 12,000 feet AGL
Clouds: scattered clouds at 10000 feet AGL
Weather: no significant weather observed at this time

METAR text: UAAA 201630Z VRB01MPS 9999 SCT100 19/09 Q1017 R05R/CLRD65 NOSIG
Conditions at: UAAA (ALMA-ATA , KZ) observed 1630 UTC 20 August 2019
Temperature: 19.0°C (66°F)
Dewpoint: 9.0°C (48°F) [RH = 52%]
Pressure (altimeter): 30.03 inches Hg (1017.0 mb)
Winds: variable direction winds at 2 MPH (2 knots; 1.0 m/s)
Visibility: 6 or more miles (10+ km)
Ceiling: at least 12,000 feet AGL
Clouds: scattered clouds at 10000 feet AGL
Weather: no significant weather observed at this time

METAR text: UAAA 201600Z 17002MPS 140V200 9999 SCT100 20/08 Q1018 R05R/CLRD65 NOSIG
Conditions at: UAAA (ALMA-ATA , KZ) observed 1600 UTC 20 August 2019
Temperature: 20.0°C (68°F)
Dewpoint: 8.0°C (46°F) [RH = 46%]
Pressure (altimeter): 30.06 inches Hg (1018.0 mb)
Winds: from the S (170 degrees) at 5 MPH (4 knots; 2.1 m/s)
Visibility: 6 or more miles (10+ km)
Ceiling: at least 12,000 feet AGL
Clouds: scattered clouds at 10000 feet AGL
Weather: no significant weather observed at this time

METAR text: UAAA 201530Z 15002MPS 5000 FU SCT100 19/09 Q1018 R05R/CLRD65 NOSIG
Conditions at: UAAA (ALMA-ATA , KZ) observed 1530 UTC 20 August 2019
Temperature: 19.0°C (66°F)
Dewpoint: 9.0°C (48°F) [RH = 52%]
Pressure (altimeter): 30.06 inches Hg (1018.0 mb)
Winds: from the SSE (150 degrees) at 5 MPH (4 knots; 2.1 m/s)
Visibility: 3 miles ( 5 km)
Ceiling: at least 12,000 feet AGL
Clouds: scattered clouds at 10000 feet AGL
Weather: FU  (smoke)

METAR text: UAAA 201500Z 17002MPS 5000 FU SCT100 20/10 Q1018 R05R/CLRD65 NOSIG
Conditions at: UAAA (ALMA-ATA , KZ) observed 1500 UTC 20 August 2019
Temperature: 20.0°C (68°F)
Dewpoint: 10.0°C (50°F) [RH = 53%]
Pressure (altimeter): 30.06 inches Hg (1018.0 mb)
Winds: from the S (170 degrees) at 5 MPH (4 knots; 2.1 m/s)
Visibility: 3 miles ( 5 km)
Ceiling: at least 12,000 feet AGL
Clouds: scattered clouds at 10000 feet AGL
Weather: FU  (smoke)

METAR text: UAAA 201430Z 13002MPS 5000 FU SCT100 21/11 Q1018 R05R/CLRD65 NOSIG
Conditions at: UAAA (ALMA-ATA , KZ) observed 1430 UTC 20 August 2019
Temperature: 21.0°C (70°F)
Dewpoint: 11.0°C (52°F) [RH = 53%]
Pressure (altimeter): 30.06 inches Hg (1018.0 mb)
Winds: from the SE (130 degrees) at 5 MPH (4 knots; 2.1 m/s)
Visibility: 3 miles ( 5 km)
Ceiling: at least 12,000 feet AGL
Clouds: scattered clouds at 10000 feet AGL
Weather: FU  (smoke)

METAR text: UAAA 201400Z 16002MPS 5000 FU FEW050 SCT100 23/10 Q1018 R05R/CLRD65 NOSIG
Conditions at: UAAA (ALMA-ATA , KZ) observed 1400 UTC 20 August 2019
Temperature: 23.0°C (73°F)
Dewpoint: 10.0°C (50°F) [RH = 44%]
Pressure (altimeter): 30.06 inches Hg (1018.0 mb)
Winds: from the SSE (160 degrees) at 5 MPH (4 knots; 2.1 m/s)
Visibility: 3 miles ( 5 km)
Ceiling: at least 12,000 feet AGL
Clouds: few clouds at 5000 feet AGL
scattered clouds at 10000 feet AGL
Weather: FU  (smoke)

METAR text: UAAA 201330Z 15002MPS 9999 FEW050CB SCT100 25/09 Q1018 R05R/CLRD65 NOSIG
Conditions at: UAAA (ALMA-ATA , KZ) observed 1330 UTC 20 August 2019
Temperature: 25.0°C (77°F)
Dewpoint: 9.0°C (48°F) [RH = 36%]
Pressure (altimeter): 30.06 inches Hg (1018.0 mb)
Winds: from the SSE (150 degrees) at 5 MPH (4 knots; 2.1 m/s)
Visibility: 6 or more miles (10+ km)
Ceiling: at least 12,000 feet AGL
Clouds: few clouds at 5000 feet AGL
scattered clouds at 10000 feet AGL
Weather: no significant weather observed at this time

METAR text: UAAA 201300Z 11002MPS 060V170 9999 FEW050CB SCT100 26/08 Q1018 R05R/CLRD65 NOSIG
Conditions at: UAAA (ALMA-ATA , KZ) observed 1300 UTC 20 August 2019
Temperature: 26.0°C (79°F)
Dewpoint: 8.0°C (46°F) [RH = 32%]
Pressure (altimeter): 30.06 inches Hg (1018.0 mb)
Winds: from the ESE (110 degrees) at 5 MPH (4 knots; 2.1 m/s)
Visibility: 6 or more miles (10+ km)
Ceiling: at least 12,000 feet AGL
Clouds: few clouds at 5000 feet AGL
scattered clouds at 10000 feet AGL
Weather: no significant weather observed at this time

METAR text: UAAA 201230Z VRB01MPS 9999 SCT050CB BKN100 27/06 Q1018 R05R/CLRD65 NOSIG
Conditions at: UAAA (ALMA-ATA , KZ) observed 1230 UTC 20 August 2019
Temperature: 27.0°C (81°F)
Dewpoint: 6.0°C (43°F) [RH = 26%]
Pressure (altimeter): 30.06 inches Hg (1018.0 mb)
Winds: variable direction winds at 2 MPH (2 knots; 1.0 m/s)
Visibility: 6 or more miles (10+ km)
Ceiling: 10000 feet AGL
Clouds: scattered clouds at 5000 feet AGL
broken clouds at 10000 feet AGL
Weather: no significant weather observed at this time

METAR text: UAAA 201200Z VRB01MPS 9999 SCT050CB BKN100 28/07 Q1018 R05R/CLRD65 NOSIG
Conditions at: UAAA (ALMA-ATA , KZ) observed 1200 UTC 20 August 2019
Temperature: 28.0°C (82°F)
Dewpoint: 7.0°C (45°F) [RH = 27%]
Pressure (altimeter): 30.06 inches Hg (1018.0 mb)
Winds: variable direction winds at 2 MPH (2 knots; 1.0 m/s)
Visibility: 6 or more miles (10+ km)
Ceiling: 10000 feet AGL
Clouds: scattered clouds at 5000 feet AGL
broken clouds at 10000 feet AGL
Weather: no significant weather observed at this time

METAR text: UAAA 201130Z VRB01MPS 9999 SCT050TCU BKN100 28/07 Q1018 R05R/CLRD65 NOSIG
Conditions at: UAAA (ALMA-ATA , KZ) observed 1130 UTC 20 August 2019
Temperature: 28.0°C (82°F)
Dewpoint: 7.0°C (45°F) [RH = 27%]
Pressure (altimeter): 30.06 inches Hg (1018.0 mb)
Winds: variable direction winds at 2 MPH (2 knots; 1.0 m/s)
Visibility: 6 or more miles (10+ km)
Ceiling: 10000 feet AGL
Clouds: scattered clouds at 5000 feet AGL
broken clouds at 10000 feet AGL
Weather: no significant weather observed at this time

METAR text: UAAA 201100Z 32002MPS 9999 SCT050 BKN200 28/07 Q1018 R05R/CLRD65 NOSIG
Conditions at: UAAA (ALMA-ATA , KZ) observed 1100 UTC 20 August 2019
Temperature: 28.0°C (82°F)
Dewpoint: 7.0°C (45°F) [RH = 27%]
Pressure (altimeter): 30.06 inches Hg (1018.0 mb)
Winds: from the NW (320 degrees) at 5 MPH (4 knots; 2.1 m/s)
Visibility: 6 or more miles (10+ km)
Ceiling: 20000 feet AGL
Clouds: scattered clouds at 5000 feet AGL
broken clouds at 20000 feet AGL
Weather: no significant weather observed at this time

METAR text: UAAA 201030Z 07002MPS 9999 SCT050 BKN200 28/05 Q1018 R05R/CLRD65 NOSIG
Conditions at: UAAA (ALMA-ATA , KZ) observed 1030 UTC 20 August 2019
Temperature: 28.0°C (82°F)
Dewpoint: 5.0°C (41°F) [RH = 23%]
Pressure (altimeter): 30.06 inches Hg (1018.0 mb)
Winds: from the ENE (70 degrees) at 5 MPH (4 knots; 2.1 m/s)
Visibility: 6 or more miles (10+ km)
Ceiling: 20000 feet AGL
Clouds: scattered clouds at 5000 feet AGL
broken clouds at 20000 feet AGL
Weather: no significant weather observed at this time

METAR text: UAAA 201000Z 36002MPS 320V060 9999 SCT050 BKN200 27/07 Q1017 R05R/CLRD65 NOSIG
Conditions at: UAAA (ALMA-ATA , KZ) observed 1000 UTC 20 August 2019
Temperature: 27.0°C (81°F)
Dewpoint: 7.0°C (45°F) [RH = 28%]
Pressure (altimeter): 30.03 inches Hg (1017.0 mb)
Winds: from the N (360 degrees) at 5 MPH (4 knots; 2.1 m/s)
Visibility: 6 or more miles (10+ km)
Ceiling: 20000 feet AGL
Clouds: scattered clouds at 5000 feet AGL
broken clouds at 20000 feet AGL
Weather: no significant weather observed at this time

METAR text: UAAA 200930Z 35003MPS 9999 SCT050 BKN200 27/08 Q1018 R05R/CLRD65 NOSIG
Conditions at: UAAA (ALMA-ATA , KZ) observed 0930 UTC 20 August 2019
Temperature: 27.0°C (81°F)
Dewpoint: 8.0°C (46°F) [RH = 30%]
Pressure (altimeter): 30.06 inches Hg (1018.0 mb)
Winds: from the N (350 degrees) at 7 MPH (6 knots; 3.1 m/s)
Visibility: 6 or more miles (10+ km)
Ceiling: 20000 feet AGL
Clouds: scattered clouds at 5000 feet AGL
broken clouds at 20000 feet AGL
Weather: no significant weather observed at this time

METAR text: UAAA 200900Z 35003MPS 320V040 9999 SCT050 BKN200 27/08 Q1018 R05R/CLRD65 NOSIG
Conditions at: UAAA (ALMA-ATA , KZ) observed 0900 UTC 20 August 2019
Temperature: 27.0°C (81°F)
Dewpoint: 8.0°C (46°F) [RH = 30%]
Pressure (altimeter): 30.06 inches Hg (1018.0 mb)
Winds: from the N (350 degrees) at 7 MPH (6 knots; 3.1 m/s)
Visibility: 6 or more miles (10+ km)
Ceiling: 20000 feet AGL
Clouds: scattered clouds at 5000 feet AGL
broken clouds at 20000 feet AGL
Weather: no significant weather observed at this time

METAR text: UAAA 200830Z 03003MPS 340V090 9999 SCT050 BKN200 27/09 Q1018 R05R/CLRD65 NOSIG
Conditions at: UAAA (ALMA-ATA , KZ) observed 0830 UTC 20 August 2019
Temperature: 27.0°C (81°F)
Dewpoint: 9.0°C (48°F) [RH = 32%]
Pressure (altimeter): 30.06 inches Hg (1018.0 mb)
Winds: from the NNE (30 degrees) at 7 MPH (6 knots; 3.1 m/s)
Visibility: 6 or more miles (10+ km)
Ceiling: 20000 feet AGL
Clouds: scattered clouds at 5000 feet AGL
broken clouds at 20000 feet AGL
Weather: no significant weather observed at this time

METAR text: UAAA 200800Z 01004MPS 310V030 9999 SCT050 BKN200 27/09 Q1018 R05R/CLRD65 NOSIG
Conditions at: UAAA (ALMA-ATA , KZ) observed 0800 UTC 20 August 2019
Temperature: 27.0°C (81°F)
Dewpoint: 9.0°C (48°F) [RH = 32%]
Pressure (altimeter): 30.06 inches Hg (1018.0 mb)
Winds: from the N (10 degrees) at 9 MPH (8 knots; 4.1 m/s)
Visibility: 6 or more miles (10+ km)
Ceiling: 20000 feet AGL
Clouds: scattered clouds at 5000 feet AGL
broken clouds at 20000 feet AGL
Weather: no significant weather observed at this time

METAR text: UAAA 200730Z 02004MPS 360V070 9999 SCT050 BKN200 26/10 Q1018 R05R/CLRD65 NOSIG
Conditions at: UAAA (ALMA-ATA , KZ) observed 0730 UTC 20 August 2019
Temperature: 26.0°C (79°F)
Dewpoint: 10.0°C (50°F) [RH = 37%]
Pressure (altimeter): 30.06 inches Hg (1018.0 mb)
Winds: from the NNE (20 degrees) at 9 MPH (8 knots; 4.1 m/s)
Visibility: 6 or more miles (10+ km)
Ceiling: 20000 feet AGL
Clouds: scattered clouds at 5000 feet AGL
broken clouds at 20000 feet AGL
Weather: no significant weather observed at this time

METAR text: UAAA 200700Z 02004MPS 9999 SCT050 BKN200 26/09 Q1018 R05R/CLRD65 NOSIG
Conditions at: UAAA (ALMA-ATA , KZ) observed 0700 UTC 20 August 2019
Temperature: 26.0°C (79°F)
Dewpoint: 9.0°C (48°F) [RH = 34%]
Pressure (altimeter): 30.06 inches Hg (1018.0 mb)
Winds: from the NNE (20 degrees) at 9 MPH (8 knots; 4.1 m/s)
Visibility: 6 or more miles (10+ km)
Ceiling: 20000 feet AGL
Clouds: scattered clouds at 5000 feet AGL
broken clouds at 20000 feet AGL
Weather: no significant weather observed at this time

METAR text: UAAA 200630Z 02004MPS 9999 SCT050 BKN200 26/08 Q1018 R05R/CLRD65 NOSIG
Conditions at: UAAA (ALMA-ATA , KZ) observed 0630 UTC 20 August 2019
Temperature: 26.0°C (79°F)
Dewpoint: 8.0°C (46°F) [RH = 32%]
Pressure (altimeter): 30.06 inches Hg (1018.0 mb)
Winds: from the NNE (20 degrees) at 9 MPH (8 knots; 4.1 m/s)
Visibility: 6 or more miles (10+ km)
Ceiling: 20000 feet AGL
Clouds: scattered clouds at 5000 feet AGL
broken clouds at 20000 feet AGL
Weather: no significant weather observed at this time

METAR text: UAAA 200600Z 01004MPS 340V050 9999 SCT050 BKN200 25/09 Q1019 R05R/CLRD65 NOSIG
Conditions at: UAAA (ALMA-ATA , KZ) observed 0600 UTC 20 August 2019
Temperature: 25.0°C (77°F)
Dewpoint: 9.0°C (48°F) [RH = 36%]
Pressure (altimeter): 30.09 inches Hg (1019.0 mb)
Winds: from the N (10 degrees) at 9 MPH (8 knots; 4.1 m/s)
Visibility: 6 or more miles (10+ km)
Ceiling: 20000 feet AGL
Clouds: scattered clouds at 5000 feet AGL
broken clouds at 20000 feet AGL
Weather: no significant weather observed at this time

METAR text: UAAA 200530Z 01003MPS 330V040 9999 SCT100 BKN200 25/10 Q1019 R05R/CLRD65 NOSIG
Conditions at: UAAA (ALMA-ATA , KZ) observed 0530 UTC 20 August 2019
Temperature: 25.0°C (77°F)
Dewpoint: 10.0°C (50°F) [RH = 39%]
Pressure (altimeter): 30.09 inches Hg (1019.0 mb)
Winds: from the N (10 degrees) at 7 MPH (6 knots; 3.1 m/s)
Visibility: 6 or more miles (10+ km)
Ceiling: 20000 feet AGL
Clouds: scattered clouds at 10000 feet AGL
broken clouds at 20000 feet AGL
Weather: no significant weather observed at this time

METAR text: UAAA 200500Z 01004MPS 340V040 9999 SCT200 24/08 Q1019 R05R/CLRD65 NOSIG
Conditions at: UAAA (ALMA-ATA , KZ) observed 0500 UTC 20 August 2019
Temperature: 24.0°C (75°F)
Dewpoint: 8.0°C (46°F) [RH = 36%]
Pressure (altimeter): 30.09 inches Hg (1019.0 mb)
Winds: from the N (10 degrees) at 9 MPH (8 knots; 4.1 m/s)
Visibility: 6 or more miles (10+ km)
Ceiling: at least 12,000 feet AGL
Clouds: scattered clouds at 20000 feet AGL
Weather: no significant weather observed at this time

METAR text: UAAA 200430Z 01004MPS 9999 SCT200 24/09 Q1019 R05R/CLRD65 NOSIG
Conditions at: UAAA (ALMA-ATA , KZ) observed 0430 UTC 20 August 2019
Temperature: 24.0°C (75°F)
Dewpoint: 9.0°C (48°F) [RH = 38%]
Pressure (altimeter): 30.09 inches Hg (1019.0 mb)
Winds: from the N (10 degrees) at 9 MPH (8 knots; 4.1 m/s)
Visibility: 6 or more miles (10+ km)
Ceiling: at least 12,000 feet AGL
Clouds: scattered clouds at 20000 feet AGL
Weather: no significant weather observed at this time

METAR text: UAAA 200400Z 01003MPS 9999 FEW200 24/07 Q1019 R05R/CLRD65 NOSIG
Conditions at: UAAA (ALMA-ATA , KZ) observed 0400 UTC 20 August 2019
Temperature: 24.0°C (75°F)
Dewpoint: 7.0°C (45°F) [RH = 34%]
Pressure (altimeter): 30.09 inches Hg (1019.0 mb)
Winds: from the N (10 degrees) at 7 MPH (6 knots; 3.1 m/s)
Visibility: 6 or more miles (10+ km)
Ceiling: at least 12,000 feet AGL
Clouds: few clouds at 20000 feet AGL
Weather: no significant weather observed at this time

METAR text: UAAA 200330Z 02003MPS 9999 FEW200 23/12 Q1019 R05R/CLRD65 NOSIG
Conditions at: UAAA (ALMA-ATA , KZ) observed 0330 UTC 20 August 2019
Temperature: 23.0°C (73°F)
Dewpoint: 12.0°C (54°F) [RH = 50%]
Pressure (altimeter): 30.09 inches Hg (1019.0 mb)
Winds: from the NNE (20 degrees) at 7 MPH (6 knots; 3.1 m/s)
Visibility: 6 or more miles (10+ km)
Ceiling: at least 12,000 feet AGL
Clouds: few clouds at 20000 feet AGL
Weather: no significant weather observed at this time

METAR text: UAAA 200300Z 00000MPS 9999 FEW200 23/13 Q1019 R05R/CLRD65 NOSIG
Conditions at: UAAA (ALMA-ATA , KZ) observed 0300 UTC 20 August 2019
Temperature: 23.0°C (73°F)
Dewpoint: 13.0°C (55°F) [RH = 53%]
Pressure (altimeter): 30.09 inches Hg (1019.0 mb)
Winds: calm
Visibility: 6 or more miles (10+ km)
Ceiling: at least 12,000 feet AGL
Clouds: few clouds at 20000 feet AGL
Weather: no significant weather observed at this time

METAR text: UAAA 200230Z 00000MPS 9999 FEW200 22/09 Q1019 R05R/CLRD65 NOSIG
Conditions at: UAAA (ALMA-ATA , KZ) observed 0230 UTC 20 August 2019
Temperature: 22.0°C (72°F)
Dewpoint: 9.0°C (48°F) [RH = 43%]
Pressure (altimeter): 30.09 inches Hg (1019.0 mb)
Winds: calm
Visibility: 6 or more miles (10+ km)
Ceiling: at least 12,000 feet AGL
Clouds: few clouds at 20000 feet AGL
Weather: no significant weather observed at this time

METAR text: UAAA 200200Z 00000MPS 9999 FEW200 20/10 Q1019 R05R/CLRD65 NOSIG
Conditions at: UAAA (ALMA-ATA , KZ) observed 0200 UTC 20 August 2019
Temperature: 20.0°C (68°F)
Dewpoint: 10.0°C (50°F) [RH = 53%]
Pressure (altimeter): 30.09 inches Hg (1019.0 mb)
Winds: calm
Visibility: 6 or more miles (10+ km)
Ceiling: at least 12,000 feet AGL
Clouds: few clouds at 20000 feet AGL
Weather: no significant weather observed at this time

METAR text: UAAA 200130Z VRB01MPS 9999 FEW200 17/09 Q1019 R05R/CLRD65 NOSIG
Conditions at: UAAA (ALMA-ATA , KZ) observed 0130 UTC 20 August 2019
Temperature: 17.0°C (63°F)
Dewpoint: 9.0°C (48°F) [RH = 59%]
Pressure (altimeter): 30.09 inches Hg (1019.0 mb)
Winds: variable direction winds at 2 MPH (2 knots; 1.0 m/s)
Visibility: 6 or more miles (10+ km)
Ceiling: at least 12,000 feet AGL
Clouds: few clouds at 20000 feet AGL
Weather: no significant weather observed at this time

METAR text: UAAA 200100Z 18002MPS 150V220 9999 FEW200 15/08 Q1019 R05R/CLRD65 NOSIG
Conditions at: UAAA (ALMA-ATA , KZ) observed 0100 UTC 20 August 2019
Temperature: 15.0°C (59°F)
Dewpoint: 8.0°C (46°F) [RH = 63%]
Pressure (altimeter): 30.09 inches Hg (1019.0 mb)
Winds: from the S (180 degrees) at 5 MPH (4 knots; 2.1 m/s)
Visibility: 6 or more miles (10+ km)
Ceiling: at least 12,000 feet AGL
Clouds: few clouds at 20000 feet AGL
Weather: no significant weather observed at this time

METAR text: UAAA 200030Z 17002MPS 150V210 9999 SCT100 13/08 Q1019 R05R/CLRD65 NOSIG
Conditions at: UAAA (ALMA-ATA , KZ) observed 0030 UTC 20 August 2019
Temperature: 13.0°C (55°F)
Dewpoint: 8.0°C (46°F) [RH = 72%]
Pressure (altimeter): 30.09 inches Hg (1019.0 mb)
Winds: from the S (170 degrees) at 5 MPH (4 knots; 2.1 m/s)
Visibility: 6 or more miles (10+ km)
Ceiling: at least 12,000 feet AGL
Clouds: scattered clouds at 10000 feet AGL
Weather: no significant weather observed at this time

METAR text: UAAA 200000Z 17002MPS 9999 SCT100 12/08 Q1019 R05R/CLRD65 NOSIG
Conditions at: UAAA (ALMA-ATA , KZ) observed 0000 UTC 20 August 2019
Temperature: 12.0°C (54°F)
Dewpoint: 8.0°C (46°F) [RH = 76%]
Pressure (altimeter): 30.09 inches Hg (1019.0 mb)
Winds: from the S (170 degrees) at 5 MPH (4 knots; 2.1 m/s)
Visibility: 6 or more miles (10+ km)
Ceiling: at least 12,000 feet AGL
Clouds: scattered clouds at 10000 feet AGL
Weather: no significant weather observed at this time

METAR text: UAAA 192330Z 18002MPS 9999 SCT100 12/08 Q1019 R05R/CLRD65 NOSIG
Conditions at: UAAA (ALMA-ATA , KZ) observed 2330 UTC 19 August 2019
Temperature: 12.0°C (54°F)
Dewpoint: 8.0°C (46°F) [RH = 76%]
Pressure (altimeter): 30.09 inches Hg (1019.0 mb)
Winds: from the S (180 degrees) at 5 MPH (4 knots; 2.1 m/s)
Visibility: 6 or more miles (10+ km)
Ceiling: at least 12,000 feet AGL
Clouds: scattered clouds at 10000 feet AGL
Weather: no significant weather observed at this time

METAR text: UAAA 192300Z 16002MPS 9999 SCT100 12/08 Q1019 R23L/CLRD65 NOSIG
Conditions at: UAAA (ALMA-ATA , KZ) observed 2300 UTC 19 August 2019
Temperature: 12.0°C (54°F)
Dewpoint: 8.0°C (46°F) [RH = 76%]
Pressure (altimeter): 30.09 inches Hg (1019.0 mb)
Winds: from the SSE (160 degrees) at 5 MPH (4 knots; 2.1 m/s)
Visibility: 6 or more miles (10+ km)
Ceiling: at least 12,000 feet AGL
Clouds: scattered clouds at 10000 feet AGL
Weather: no significant weather observed at this time

METAR text: UAAA 192230Z 21002MPS 9999 SCT100 13/08 Q1019 R23L/CLRD65 NOSIG
Conditions at: UAAA (ALMA-ATA , KZ) observed 2230 UTC 19 August 2019
Temperature: 13.0°C (55°F)
Dewpoint: 8.0°C (46°F) [RH = 72%]
Pressure (altimeter): 30.09 inches Hg (1019.0 mb)
Winds: from the SSW (210 degrees) at 5 MPH (4 knots; 2.1 m/s)
Visibility: 6 or more miles (10+ km)
Ceiling: at least 12,000 feet AGL
Clouds: scattered clouds at 10000 feet AGL
Weather: no significant weather observed at this time

METAR text: UAAA 192200Z VRB01MPS 9999 SCT100 13/08 Q1019 R23L/CLRD65 NOSIG
Conditions at: UAAA (ALMA-ATA , KZ) observed 2200 UTC 19 August 2019
Temperature: 13.0°C (55°F)
Dewpoint: 8.0°C (46°F) [RH = 72%]
Pressure (altimeter): 30.09 inches Hg (1019.0 mb)
Winds: variable direction winds at 2 MPH (2 knots; 1.0 m/s)
Visibility: 6 or more miles (10+ km)
Ceiling: at least 12,000 feet AGL
Clouds: scattered clouds at 10000 feet AGL
Weather: no significant weather observed at this time

METAR text: UAAA 192130Z 15002MPS 9999 SCT100 13/08 Q1019 R23L/CLRD65 NOSIG
Conditions at: UAAA (ALMA-ATA , KZ) observed 2130 UTC 19 August 2019
Temperature: 13.0°C (55°F)
Dewpoint: 8.0°C (46°F) [RH = 72%]
Pressure (altimeter): 30.09 inches Hg (1019.0 mb)
Winds: from the SSE (150 degrees) at 5 MPH (4 knots; 2.1 m/s)
Visibility: 6 or more miles (10+ km)
Ceiling: at least 12,000 feet AGL
Clouds: scattered clouds at 10000 feet AGL
Weather: no significant weather observed at this time

METAR text: UAAA 192100Z 15003MPS 9999 SCT100 13/09 Q1019 R23L/CLRD65 NOSIG
Conditions at: UAAA (ALMA-ATA , KZ) observed 2100 UTC 19 August 2019
Temperature: 13.0°C (55°F)
Dewpoint: 9.0°C (48°F) [RH = 77%]
Pressure (altimeter): 30.09 inches Hg (1019.0 mb)
Winds: from the SSE (150 degrees) at 7 MPH (6 knots; 3.1 m/s)
Visibility: 6 or more miles (10+ km)
Ceiling: at least 12,000 feet AGL
Clouds: scattered clouds at 10000 feet AGL
Weather: no significant weather observed at this time

METAR text: UAAA 192030Z 14002MPS 9999 SCT100 13/09 Q1019 R23L/CLRD65 NOSIG
Conditions at: UAAA (ALMA-ATA , KZ) observed 2030 UTC 19 August 2019
Temperature: 13.0°C (55°F)
Dewpoint: 9.0°C (48°F) [RH = 77%]
Pressure (altimeter): 30.09 inches Hg (1019.0 mb)
Winds: from the SE (140 degrees) at 5 MPH (4 knots; 2.1 m/s)
Visibility: 6 or more miles (10+ km)
Ceiling: at least 12,000 feet AGL
Clouds: scattered clouds at 10000 feet AGL
Weather: no significant weather observed at this time

METAR text: UAAA 192000Z VRB01MPS 9999 SCT100 14/09 Q1019 R23L/CLRD65 NOSIG
Conditions at: UAAA (ALMA-ATA , KZ) observed 2000 UTC 19 August 2019
Temperature: 14.0°C (57°F)
Dewpoint: 9.0°C (48°F) [RH = 72%]
Pressure (altimeter): 30.09 inches Hg (1019.0 mb)
Winds: variable direction winds at 2 MPH (2 knots; 1.0 m/s)
Visibility: 6 or more miles (10+ km)
Ceiling: at least 12,000 feet AGL
Clouds: scattered clouds at 10000 feet AGL
Weather: no significant weather observed at this time

METAR text: UAAA 191930Z VRB01MPS 9999 SCT100 14/09 Q1019 R23L/CLRD65 NOSIG
Conditions at: UAAA (ALMA-ATA , KZ) observed 1930 UTC 19 August 2019
Temperature: 14.0°C (57°F)
Dewpoint: 9.0°C (48°F) [RH = 72%]
Pressure (altimeter): 30.09 inches Hg (1019.0 mb)
Winds: variable direction winds at 2 MPH (2 knots; 1.0 m/s)
Visibility: 6 or more miles (10+ km)
Ceiling: at least 12,000 feet AGL
Clouds: scattered clouds at 10000 feet AGL
Weather: no significant weather observed at this time

METAR text: UAAA 191900Z VRB01MPS 9999 SCT100 14/09 Q1019 R23L/CLRD65 NOSIG
Conditions at: UAAA (ALMA-ATA , KZ) observed 1900 UTC 19 August 2019
Temperature: 14.0°C (57°F)
Dewpoint: 9.0°C (48°F) [RH = 72%]
Pressure (altimeter): 30.09 inches Hg (1019.0 mb)
Winds: variable direction winds at 2 MPH (2 knots; 1.0 m/s)
Visibility: 6 or more miles (10+ km)
Ceiling: at least 12,000 feet AGL
Clouds: scattered clouds at 10000 feet AGL
Weather: no significant weather observed at this time

METAR text: UAAA 191830Z 14001MPS 9999 FEW050 BKN100 15/09 Q1019 R23L/CLRD65 NOSIG
Conditions at: UAAA (ALMA-ATA , KZ) observed 1830 UTC 19 August 2019
Temperature: 15.0°C (59°F)
Dewpoint: 9.0°C (48°F) [RH = 67%]
Pressure (altimeter): 30.09 inches Hg (1019.0 mb)
Winds: from the SE (140 degrees) at 2 MPH (2 knots; 1.0 m/s)
Visibility: 6 or more miles (10+ km)
Ceiling: 10000 feet AGL
Clouds: few clouds at 5000 feet AGL
broken clouds at 10000 feet AGL
Weather: no significant weather observed at this time

METAR text: UAAA 191800Z 17002MPS 9999 FEW050 BKN100 16/09 Q1019 R23L/CLRD65 NOSIG
Conditions at: UAAA (ALMA-ATA , KZ) observed 1800 UTC 19 August 2019
Temperature: 16.0°C (61°F)
Dewpoint: 9.0°C (48°F) [RH = 63%]
Pressure (altimeter): 30.09 inches Hg (1019.0 mb)
Winds: from the S (170 degrees) at 5 MPH (4 knots; 2.1 m/s)
Visibility: 6 or more miles (10+ km)
Ceiling: 10000 feet AGL
Clouds: few clouds at 5000 feet AGL
broken clouds at 10000 feet AGL
Weather: no significant weather observed at this time

METAR text: UAAA 191730Z 16002MPS 9999 FEW050 BKN100 17/09 Q1020 R23L/CLRD65 NOSIG
Conditions at: UAAA (ALMA-ATA , KZ) observed 1730 UTC 19 August 2019
Temperature: 17.0°C (63°F)
Dewpoint: 9.0°C (48°F) [RH = 59%]
Pressure (altimeter): 30.12 inches Hg (1020.0 mb)
Winds: from the SSE (160 degrees) at 5 MPH (4 knots; 2.1 m/s)
Visibility: 6 or more miles (10+ km)
Ceiling: 10000 feet AGL
Clouds: few clouds at 5000 feet AGL
broken clouds at 10000 feet AGL
Weather: no significant weather observed at this time

METAR text: UAAA 191700Z 23002MPS 170V300 9999 FEW050 BKN100 18/09 Q1020 R23L/CLRD65 NOSIG
Conditions at: UAAA (ALMA-ATA , KZ) observed 1700 UTC 19 August 2019
Temperature: 18.0°C (64°F)
Dewpoint: 9.0°C (48°F) [RH = 56%]
Pressure (altimeter): 30.12 inches Hg (1020.0 mb)
Winds: from the SW (230 degrees) at 5 MPH (4 knots; 2.1 m/s)
Visibility: 6 or more miles (10+ km)
Ceiling: 10000 feet AGL
Clouds: few clouds at 5000 feet AGL
broken clouds at 10000 feet AGL
Weather: no significant weather observed at this time

METAR text: UAAA 191630Z 15003MPS 9999 FEW050 BKN100 18/09 Q1020 R23L/CLRD65 NOSIG
Conditions at: UAAA (ALMA-ATA , KZ) observed 1630 UTC 19 August 2019
Temperature: 18.0°C (64°F)
Dewpoint: 9.0°C (48°F) [RH = 56%]
Pressure (altimeter): 30.12 inches Hg (1020.0 mb)
Winds: from the SSE (150 degrees) at 7 MPH (6 knots; 3.1 m/s)
Visibility: 6 or more miles (10+ km)
Ceiling: 10000 feet AGL
Clouds: few clouds at 5000 feet AGL
broken clouds at 10000 feet AGL
Weather: no significant weather observed at this time

METAR text: UAAA 191600Z 14003MPS 9999 FEW050 BKN100 18/09 Q1020 R23L/CLRD65 NOSIG
Conditions at: UAAA (ALMA-ATA , KZ) observed 1600 UTC 19 August 2019
Temperature: 18.0°C (64°F)
Dewpoint: 9.0°C (48°F) [RH = 56%]
Pressure (altimeter): 30.12 inches Hg (1020.0 mb)
Winds: from the SE (140 degrees) at 7 MPH (6 knots; 3.1 m/s)
Visibility: 6 or more miles (10+ km)
Ceiling: 10000 feet AGL
Clouds: few clouds at 5000 feet AGL
broken clouds at 10000 feet AGL
Weather: no significant weather observed at this time

METAR text: UAAA 191530Z 14002MPS 9999 FEW050 BKN100 18/10 Q1020 R23L/CLRD65 NOSIG
Conditions at: UAAA (ALMA-ATA , KZ) observed 1530 UTC 19 August 2019
Temperature: 18.0°C (64°F)
Dewpoint: 10.0°C (50°F) [RH = 59%]
Pressure (altimeter): 30.12 inches Hg (1020.0 mb)
Winds: from the SE (140 degrees) at 5 MPH (4 knots; 2.1 m/s)
Visibility: 6 or more miles (10+ km)
Ceiling: 10000 feet AGL
Clouds: few clouds at 5000 feet AGL
broken clouds at 10000 feet AGL
Weather: no significant weather observed at this time

METAR text: UAAA 191500Z 14002MPS 5000 FU SCT050CB BKN100 19/10 Q1020 R23L/CLRD65 NOSIG
Conditions at: UAAA (ALMA-ATA , KZ) observed 1500 UTC 19 August 2019
Temperature: 19.0°C (66°F)
Dewpoint: 10.0°C (50°F) [RH = 56%]
Pressure (altimeter): 30.12 inches Hg (1020.0 mb)
Winds: from the SE (140 degrees) at 5 MPH (4 knots; 2.1 m/s)
Visibility: 3 miles ( 5 km)
Ceiling: 10000 feet AGL
Clouds: scattered clouds at 5000 feet AGL
broken clouds at 10000 feet AGL
Weather: FU  (smoke)

METAR text: UAAA 191430Z 12001MPS 5000 FU SCT050CB BKN100 20/10 Q1020 R23L/CLRD65 NOSIG
Conditions at: UAAA (ALMA-ATA , KZ) observed 1430 UTC 19 August 2019
Temperature: 20.0°C (68°F)
Dewpoint: 10.0°C (50°F) [RH = 53%]
Pressure (altimeter): 30.12 inches Hg (1020.0 mb)
Winds: from the ESE (120 degrees) at 2 MPH (2 knots; 1.0 m/s)
Visibility: 3 miles ( 5 km)
Ceiling: 10000 feet AGL
Clouds: scattered clouds at 5000 feet AGL
broken clouds at 10000 feet AGL
Weather: FU  (smoke)

METAR text: UAAA 191400Z 16001MPS 5000 FU SCT050CB BKN100 21/10 Q1020 R23L/CLRD65 NOSIG
Conditions at: UAAA (ALMA-ATA , KZ) observed 1400 UTC 19 August 2019
Temperature: 21.0°C (70°F)
Dewpoint: 10.0°C (50°F) [RH = 49%]
Pressure (altimeter): 30.12 inches Hg (1020.0 mb)
Winds: from the SSE (160 degrees) at 2 MPH (2 knots; 1.0 m/s)
Visibility: 3 miles ( 5 km)
Ceiling: 10000 feet AGL
Clouds: scattered clouds at 5000 feet AGL
broken clouds at 10000 feet AGL
Weather: FU  (smoke)

METAR text: UAAA 191330Z VRB01MPS 9999 SCT050CB BKN100 22/07 Q1019 R23L/CLRD65 NOSIG
Conditions at: UAAA (ALMA-ATA , KZ) observed 1330 UTC 19 August 2019
Temperature: 22.0°C (72°F)
Dewpoint: 7.0°C (45°F) [RH = 38%]
Pressure (altimeter): 30.09 inches Hg (1019.0 mb)
Winds: variable direction winds at 2 MPH (2 knots; 1.0 m/s)
Visibility: 6 or more miles (10+ km)
Ceiling: 10000 feet AGL
Clouds: scattered clouds at 5000 feet AGL
broken clouds at 10000 feet AGL
Weather: no significant weather observed at this time

METAR text: UAAA 191300Z VRB01MPS 9999 SCT050CB BKN100 23/06 Q1019 R05R/CLRD65 NOSIG
Conditions at: UAAA (ALMA-ATA , KZ) observed 1300 UTC 19 August 2019
Temperature: 23.0°C (73°F)
Dewpoint: 6.0°C (43°F) [RH = 33%]
Pressure (altimeter): 30.09 inches Hg (1019.0 mb)
Winds: variable direction winds at 2 MPH (2 knots; 1.0 m/s)
Visibility: 6 or more miles (10+ km)
Ceiling: 10000 feet AGL
Clouds: scattered clouds at 5000 feet AGL
broken clouds at 10000 feet AGL
Weather: no significant weather observed at this time

METAR text: UAAA 191230Z 16003MPS 120V190 9999 SCT050CB BKN100 23/07 Q1019 R05R/CLRD65 NOSIG
Conditions at: UAAA (ALMA-ATA , KZ) observed 1230 UTC 19 August 2019
Temperature: 23.0°C (73°F)
Dewpoint: 7.0°C (45°F) [RH = 36%]
Pressure (altimeter): 30.09 inches Hg (1019.0 mb)
Winds: from the SSE (160 degrees) at 7 MPH (6 knots; 3.1 m/s)
Visibility: 6 or more miles (10+ km)
Ceiling: 10000 feet AGL
Clouds: scattered clouds at 5000 feet AGL
broken clouds at 10000 feet AGL
Weather: no significant weather observed at this time

METAR text: UAAA 191200Z 16003MPS 130V190 9999 SCT050CB BKN100 24/08 Q1019 R05R/CLRD65 NOSIG
Conditions at: UAAA (ALMA-ATA , KZ) observed 1200 UTC 19 August 2019
Temperature: 24.0°C (75°F)
Dewpoint: 8.0°C (46°F) [RH = 36%]
Pressure (altimeter): 30.09 inches Hg (1019.0 mb)
Winds: from the SSE (160 degrees) at 7 MPH (6 knots; 3.1 m/s)
Visibility: 6 or more miles (10+ km)
Ceiling: 10000 feet AGL
Clouds: scattered clouds at 5000 feet AGL
broken clouds at 10000 feet AGL
Weather: no significant weather observed at this time

METAR text: UAAA 191130Z 13002MPS 090V150 9999 SCT050CB BKN100 24/09 Q1019 R05R/CLRD65 NOSIG
Conditions at: UAAA (ALMA-ATA , KZ) observed 1130 UTC 19 August 2019
Temperature: 24.0°C (75°F)
Dewpoint: 9.0°C (48°F) [RH = 38%]
Pressure (altimeter): 30.09 inches Hg (1019.0 mb)
Winds: from the SE (130 degrees) at 5 MPH (4 knots; 2.1 m/s)
Visibility: 6 or more miles (10+ km)
Ceiling: 10000 feet AGL
Clouds: scattered clouds at 5000 feet AGL
broken clouds at 10000 feet AGL
Weather: no significant weather observed at this time

METAR text: UAAA 191100Z 08004MPS 040V100 9999 SCT050CB BKN100 25/08 Q1019 R05R/CLRD65 NOSIG
Conditions at: UAAA (ALMA-ATA , KZ) observed 1100 UTC 19 August 2019
Temperature: 25.0°C (77°F)
Dewpoint: 8.0°C (46°F) [RH = 34%]
Pressure (altimeter): 30.09 inches Hg (1019.0 mb)
Winds: from the E (80 degrees) at 9 MPH (8 knots; 4.1 m/s)
Visibility: 6 or more miles (10+ km)
Ceiling: 10000 feet AGL
Clouds: scattered clouds at 5000 feet AGL
broken clouds at 10000 feet AGL
Weather: no significant weather observed at this time

METAR text: UAAA 191030Z 07003MPS 020V110 9999 SCT050CB BKN100 26/09 Q1018 R05R/CLRD65 NOSIG
Conditions at: UAAA (ALMA-ATA , KZ) observed 1030 UTC 19 August 2019
Temperature: 26.0°C (79°F)
Dewpoint: 9.0°C (48°F) [RH = 34%]
Pressure (altimeter): 30.06 inches Hg (1018.0 mb)
Winds: from the ENE (70 degrees) at 7 MPH (6 knots; 3.1 m/s)
Visibility: 6 or more miles (10+ km)
Ceiling: 10000 feet AGL
Clouds: scattered clouds at 5000 feet AGL
broken clouds at 10000 feet AGL
Weather: no significant weather observed at this time

METAR text: UAAA 191000Z 02004MPS 350V050 9999 SCT050CB BKN100 26/07 Q1018 R05R/CLRD65 NOSIG
Conditions at: UAAA (ALMA-ATA , KZ) observed 1000 UTC 19 August 2019
Temperature: 26.0°C (79°F)
Dewpoint: 7.0°C (45°F) [RH = 30%]
Pressure (altimeter): 30.06 inches Hg (1018.0 mb)
Winds: from the NNE (20 degrees) at 9 MPH (8 knots; 4.1 m/s)
Visibility: 6 or more miles (10+ km)
Ceiling: 10000 feet AGL
Clouds: scattered clouds at 5000 feet AGL
broken clouds at 10000 feet AGL
Weather: no significant weather observed at this time

METAR text: UAAA 190930Z 02004MPS 350V060 9999 FEW050CB SCT100 BKN200 26/07 Q1018 R05R/CLRD65 NOSIG
Conditions at: UAAA (ALMA-ATA , KZ) observed 0930 UTC 19 August 2019
Temperature: 26.0°C (79°F)
Dewpoint: 7.0°C (45°F) [RH = 30%]
Pressure (altimeter): 30.06 inches Hg (1018.0 mb)
Winds: from the NNE (20 degrees) at 9 MPH (8 knots; 4.1 m/s)
Visibility: 6 or more miles (10+ km)
Ceiling: 20000 feet AGL
Clouds: few clouds at 5000 feet AGL
scattered clouds at 10000 feet AGL
broken clouds at 20000 feet AGL
Weather: no significant weather observed at this time

METAR text: UAAA 190900Z 09003MPS 040V160 9999 FEW050CB SCT100 BKN200 27/09 Q1018 R05R/CLRD65 NOSIG
Conditions at: UAAA (ALMA-ATA , KZ) observed 0900 UTC 19 August 2019
Temperature: 27.0°C (81°F)
Dewpoint: 9.0°C (48°F) [RH = 32%]
Pressure (altimeter): 30.06 inches Hg (1018.0 mb)
Winds: from the E (90 degrees) at 7 MPH (6 knots; 3.1 m/s)
Visibility: 6 or more miles (10+ km)
Ceiling: 20000 feet AGL
Clouds: few clouds at 5000 feet AGL
scattered clouds at 10000 feet AGL
broken clouds at 20000 feet AGL
Weather: no significant weather observed at this time

METAR text: UAAA 190830Z 36004MPS 330V040 9999 FEW050CB SCT100 BKN200 26/09 Q1018 R05R/CLRD65 NOSIG
Conditions at: UAAA (ALMA-ATA , KZ) observed 0830 UTC 19 August 2019
Temperature: 26.0°C (79°F)
Dewpoint: 9.0°C (48°F) [RH = 34%]
Pressure (altimeter): 30.06 inches Hg (1018.0 mb)
Winds: from the N (360 degrees) at 9 MPH (8 knots; 4.1 m/s)
Visibility: 6 or more miles (10+ km)
Ceiling: 20000 feet AGL
Clouds: few clouds at 5000 feet AGL
scattered clouds at 10000 feet AGL
broken clouds at 20000 feet AGL
Weather: no significant weather observed at this time

Forecast for: UAAA (ALMA-ATA , KZ)
Text: TAF UAAA 201700Z 2018/2118 16003MPS 9999 SCT050CB SCT100 TX28/2109Z TN13/2101Z
Forecast period: 1800 UTC 20 August 2019 to 0200 UTC 21 August 2019
Forecast type: FROM: standard forecast or significant change
Winds: from the SSE (160 degrees) at 7 MPH (6 knots; 3.1 m/s)
Visibility: 6 or more miles 10+ km)
Ceiling: at least 12,000 feet AGL
Clouds: scattered clouds at 5000 feet AGL
scattered clouds at 10000 feet AGL
Weather: no significant weather forecast for this period
Text: TEMPO 2018/2024 22004MPS
Forecast period: 1800 UTC 20 August 2019 to 0000 UTC 21 August 2019
Forecast type: TEMPORARY: The following changes expected for less than half the time period
Winds: from the SW (220 degrees) at 9 MPH (8 knots; 4.1 m/s)
Visibility: missing
Ceiling: unknown
Clouds: missing
Weather: no significant weather forecast for this period
Text: BECMG 2102/2103 02003G08MPS
Forecast period: 0200 to 1800 UTC 21 August 2019
Forecast type: BECOMING: Conditions expected to become as follows by 0300 UTC 21 August 2019
Winds: from the NNE (20 degrees) at 7 MPH (6 knots; 3.1 m/s)
gusting to 18 MPH (16 knots; 8.2 m/s)
Visibility: 6 or more miles 10+ km)
Ceiling: at least 12,000 feet AGL
Clouds: scattered clouds at 5000 feet AGL
scattered clouds at 10000 feet AGL
Weather: no significant weather forecast for this period
Text: PROB40
Forecast period: 0800 to 1300 UTC 21 August 2019
Forecast type: TEMPORARY: The following changes expected for less than half the time period
Visibility: missing
Ceiling: unknown
Clouds: missing
Weather: TS  (thunderstorm)